createdAt,value
2023-02-09T00:01:47.506Z,26.07
2023-02-09T00:04:15.570Z,22.70
2023-02-09T00:06:45.065Z,26.57
2023-02-09T00:09:12.777Z,24.87
2023-02-09T00:11:58.351Z,23.60
2023-02-09T00:14:26.858Z,27.87
2023-02-09T00:16:55.562Z,28.13
2023-02-09T00:19:23.625Z,30.00
2023-02-09T00:21:53.196Z,24.60
2023-02-09T00:24:21.311Z,27.87
2023-02-09T00:26:49.432Z,26.43
2023-02-09T00:29:22.915Z,23.10
2023-02-09T00:31:53.935Z,25.83
2023-02-09T00:34:23.026Z,24.83
2023-02-09T00:36:54.388Z,25.87
2023-02-09T00:39:25.041Z,28.43
2023-02-09T00:42:11.741Z,29.67
2023-02-09T00:44:43.311Z,28.10
2023-02-09T00:47:13.382Z,29.40
2023-02-09T00:49:42.453Z,27.57
2023-02-09T00:52:14.183Z,28.33
2023-02-09T00:54:44.248Z,25.90
2023-02-09T00:57:14.884Z,27.93
2023-02-09T00:59:42.568Z,29.37
2023-02-09T01:02:10.443Z,24.83
2023-02-09T01:04:40.110Z,27.13
2023-02-09T01:07:07.863Z,25.90
2023-02-09T01:09:37.149Z,26.13
2023-02-09T01:12:08.330Z,24.93
2023-02-09T01:14:39.832Z,23.63
2023-02-09T01:17:07.669Z,27.27
2023-02-09T01:19:36.029Z,25.37
2023-02-09T01:22:04.898Z,27.10
2023-02-09T01:24:32.860Z,24.90
2023-02-09T01:27:01.920Z,24.50
2023-02-09T01:29:32.109Z,21.63
2023-02-09T01:32:00.018Z,25.40
2023-02-09T01:34:27.911Z,24.43
2023-02-09T01:36:55.638Z,25.30
2023-02-09T01:39:23.530Z,24.60
2023-02-09T01:41:51.401Z,22.27
2023-02-09T01:44:56.599Z,24.90
2023-02-09T01:47:25.737Z,26.73
2023-02-09T01:49:53.872Z,26.63
2023-02-09T01:52:26.961Z,27.27
2023-02-09T01:54:58.556Z,24.73
2023-02-09T01:57:30.686Z,22.40
2023-02-09T02:00:03.797Z,29.03
2023-02-09T02:02:46.170Z,25.93
2023-02-09T02:05:14.551Z,20.53
2023-02-09T02:07:47.395Z,27.27
2023-02-09T02:10:15.304Z,24.37
2023-02-09T02:12:43.737Z,26.90
2023-02-09T02:15:12.940Z,23.37
2023-02-09T02:17:57.058Z,23.90
2023-02-09T02:20:55.029Z,26.03
2023-02-09T02:23:31.456Z,23.53
2023-02-09T02:26:35.479Z,23.07
2023-02-09T02:29:25.306Z,28.67
2023-02-09T02:32:16.905Z,25.40
2023-02-09T02:34:51.593Z,24.13
2023-02-09T02:37:38.494Z,23.77
2023-02-09T02:40:17.744Z,23.53
2023-02-09T02:42:52.858Z,21.43
2023-02-09T02:45:36.038Z,26.83
2023-02-09T02:48:14.379Z,20.83
2023-02-09T02:50:50.486Z,23.40
2023-02-09T02:53:21.496Z,23.47
2023-02-09T02:55:51.198Z,24.03
2023-02-09T02:58:23.001Z,21.60
2023-02-09T03:00:53.624Z,25.33
2023-02-09T03:03:27.606Z,23.87
2023-02-09T03:05:56.352Z,23.53
2023-02-09T03:08:24.329Z,24.53
2023-02-09T03:10:52.267Z,23.80
2023-02-09T03:13:33.571Z,22.37
2023-02-09T03:16:17.086Z,23.47
2023-02-09T03:18:58.507Z,22.53
2023-02-09T03:21:39.105Z,26.47
2023-02-09T03:24:14.262Z,22.07
2023-02-09T03:26:47.946Z,22.07
2023-02-09T03:29:17.752Z,23.37
2023-02-09T03:31:46.323Z,23.40
2023-02-09T03:34:16.581Z,24.67
2023-02-09T03:36:46.693Z,22.37
2023-02-09T03:39:14.493Z,23.57
2023-02-09T03:41:42.321Z,27.40
2023-02-09T03:44:28.320Z,25.57
2023-02-09T03:46:58.289Z,22.60
2023-02-09T03:49:29.343Z,23.23
2023-02-09T03:51:57.100Z,21.97
2023-02-09T03:54:24.885Z,22.23
2023-02-09T03:56:52.643Z,20.03
2023-02-09T03:59:20.961Z,24.10
2023-02-09T04:01:48.764Z,23.13
2023-02-09T04:04:16.515Z,22.50
2023-02-09T04:06:46.200Z,20.63
2023-02-09T04:09:14.760Z,23.70
2023-02-09T04:11:42.659Z,21.23
2023-02-09T04:14:10.768Z,22.93
2023-02-09T04:16:39.145Z,23.27
2023-02-09T04:19:09.492Z,23.30
2023-02-09T04:21:37.487Z,23.23
2023-02-09T04:24:08.199Z,24.40
2023-02-09T04:26:36.726Z,22.53
2023-02-09T04:29:04.926Z,23.70
2023-02-09T04:31:33.023Z,23.50
2023-02-09T04:34:00.962Z,24.90
2023-02-09T04:36:29.348Z,24.33
2023-02-09T04:38:56.963Z,22.00
2023-02-09T04:41:26.186Z,21.50
2023-02-09T04:43:53.938Z,21.17
2023-02-09T04:46:21.608Z,20.63
2023-02-09T04:48:49.313Z,19.33
2023-02-09T04:51:17.072Z,20.83
2023-02-09T04:53:44.810Z,21.77
2023-02-09T04:56:15.377Z,19.63
2023-02-09T04:59:03.157Z,21.60
2023-02-09T05:01:32.688Z,22.17
2023-02-09T05:04:00.509Z,23.33
2023-02-09T05:06:28.460Z,20.97
2023-02-09T05:08:56.262Z,23.53
2023-02-09T05:11:25.665Z,23.67
2023-02-09T05:13:54.891Z,21.17
2023-02-09T05:16:22.679Z,24.03
2023-02-09T05:18:51.308Z,22.67
2023-02-09T05:21:18.965Z,28.33
2023-02-09T05:23:49.838Z,24.57
2023-02-09T05:26:17.564Z,22.90
2023-02-09T05:28:45.192Z,25.23
2023-02-09T05:31:14.395Z,25.60
2023-02-09T05:33:42.385Z,24.30
2023-02-09T05:36:12.600Z,23.77
2023-02-09T05:38:41.013Z,23.93
2023-02-09T05:41:11.055Z,23.00
2023-02-09T05:43:39.391Z,26.07
2023-02-09T05:46:08.452Z,25.93
2023-02-09T05:48:37.924Z,25.53
2023-02-09T05:51:06.474Z,28.40
2023-02-09T05:53:34.205Z,26.13
2023-02-09T05:56:01.929Z,22.90
2023-02-09T05:58:29.739Z,22.50
2023-02-09T06:00:58.179Z,23.63
2023-02-09T06:03:25.895Z,25.30
2023-02-09T06:05:55.009Z,26.60
2023-02-09T06:08:22.731Z,26.37
2023-02-09T06:10:50.529Z,25.57
2023-02-09T06:13:18.268Z,24.97
2023-02-09T06:15:46.173Z,26.00
2023-02-09T06:18:13.946Z,27.90
2023-02-09T06:20:42.110Z,23.90
2023-02-09T06:23:11.465Z,25.70
2023-02-09T06:25:39.989Z,25.00
2023-02-09T06:28:08.246Z,25.30
2023-02-09T06:30:36.245Z,27.10
2023-02-09T06:33:04.208Z,27.80
2023-02-09T06:35:32.127Z,25.80
2023-02-09T06:38:04.678Z,27.20
2023-02-09T06:40:33.977Z,31.77
2023-02-09T06:43:04.627Z,23.87
2023-02-09T06:45:33.928Z,26.53
2023-02-09T06:48:01.752Z,25.83
2023-02-09T06:50:29.620Z,32.37
2023-02-09T06:52:58.641Z,48.27
2023-02-09T06:55:26.797Z,47.40
2023-02-09T06:57:57.350Z,34.03
2023-02-09T07:00:25.716Z,32.23
2023-02-09T07:02:54.108Z,29.07
2023-02-09T07:05:22.426Z,27.17
2023-02-09T07:07:50.254Z,31.37
2023-02-09T07:10:19.671Z,28.43
2023-02-09T07:12:47.958Z,29.53
2023-02-09T07:15:17.545Z,26.50
2023-02-09T07:17:45.326Z,27.57
2023-02-09T07:20:13.830Z,26.83
2023-02-09T07:22:41.960Z,30.80
2023-02-09T07:25:10.413Z,27.10
2023-02-09T07:27:38.117Z,25.77
2023-02-09T07:30:06.469Z,32.47
2023-02-09T07:32:35.476Z,30.50
2023-02-09T07:35:03.269Z,30.23
2023-02-09T07:37:31.163Z,28.07
2023-02-09T07:39:59.687Z,29.83
2023-02-09T07:42:27.453Z,29.23
2023-02-09T07:45:02.144Z,28.43
2023-02-09T07:47:30.035Z,29.93
2023-02-09T07:49:59.367Z,33.77
2023-02-09T07:52:27.144Z,27.73
2023-02-09T07:54:54.877Z,31.10
2023-02-09T07:57:22.878Z,26.13
2023-02-09T07:59:50.593Z,31.23
2023-02-09T08:02:28.750Z,27.97
2023-02-09T08:05:01.766Z,32.00
2023-02-09T08:07:31.754Z,27.43
2023-02-09T08:09:59.798Z,28.27
2023-02-09T08:12:44.698Z,25.30
2023-02-09T08:15:16.615Z,26.50
2023-02-09T08:17:44.585Z,28.37
2023-02-09T08:20:17.677Z,27.43
2023-02-09T08:22:49.849Z,26.13
2023-02-09T08:25:21.087Z,26.73
2023-02-09T08:27:49.000Z,27.93
2023-02-09T08:30:18.528Z,29.40
2023-02-09T08:32:46.748Z,24.87
2023-02-09T08:35:16.035Z,29.77
2023-02-09T08:37:43.778Z,29.53
2023-02-09T08:40:12.486Z,26.73
2023-02-09T08:42:40.151Z,25.47
2023-02-09T08:45:08.796Z,26.57
2023-02-09T08:47:36.594Z,26.23
2023-02-09T08:50:06.545Z,30.73
2023-02-09T08:52:35.924Z,30.07
2023-02-09T08:55:03.875Z,26.47
2023-02-09T08:57:43.187Z,28.90
2023-02-09T09:00:13.583Z,29.67
2023-02-09T09:02:41.296Z,26.77
2023-02-09T09:05:09.287Z,28.77
2023-02-09T09:07:38.431Z,26.80
2023-02-09T09:10:08.765Z,26.67
2023-02-09T09:12:37.576Z,26.27
2023-02-09T09:15:06.260Z,25.97
2023-02-09T09:17:33.977Z,26.30
2023-02-09T09:20:01.725Z,27.57
2023-02-09T09:22:29.707Z,25.67
2023-02-09T09:24:58.854Z,27.23
2023-02-09T09:27:27.122Z,31.50
2023-02-09T09:29:55.091Z,26.87
2023-02-09T09:32:24.968Z,26.97
2023-02-09T09:34:54.036Z,27.90
2023-02-09T09:37:22.575Z,25.10
2023-02-09T09:39:50.730Z,30.07
2023-02-09T09:42:26.069Z,27.83
2023-02-09T09:44:54.208Z,26.83
2023-02-09T09:47:27.523Z,29.77
2023-02-09T09:49:55.320Z,28.03
2023-02-09T09:52:31.088Z,30.40
2023-02-09T09:54:59.317Z,25.97
2023-02-09T09:57:31.016Z,25.40
2023-02-09T09:59:59.283Z,27.30
2023-02-09T10:02:31.022Z,26.77
2023-02-09T10:05:16.378Z,27.73
2023-02-09T10:07:49.699Z,28.50
2023-02-09T10:10:24.820Z,28.27
2023-02-09T10:12:56.728Z,25.93
2023-02-09T10:15:30.624Z,30.00
2023-02-09T10:17:59.855Z,31.50
2023-02-09T10:20:44.238Z,30.47
2023-02-09T10:23:21.563Z,33.47
2023-02-09T10:25:55.795Z,32.73
2023-02-09T10:28:27.757Z,29.40
2023-02-09T10:30:57.551Z,33.20
2023-02-09T10:33:26.169Z,33.73
2023-02-09T10:35:56.377Z,36.07
2023-02-09T10:38:29.702Z,36.00
2023-02-09T10:40:59.815Z,32.03
2023-02-09T10:43:32.250Z,36.97
2023-02-09T10:46:03.631Z,38.17
2023-02-09T10:48:41.650Z,35.23
2023-02-09T10:51:15.071Z,43.40
2023-02-09T10:53:59.745Z,40.93
2023-02-09T10:56:28.803Z,40.33
2023-02-09T10:59:03.505Z,39.80
2023-02-09T11:01:35.381Z,43.33
2023-02-09T11:04:06.565Z,33.80
2023-02-09T11:06:43.599Z,39.87
2023-02-09T11:09:16.378Z,39.50
2023-02-09T11:11:45.093Z,40.10
2023-02-09T11:14:16.433Z,36.53
2023-02-09T11:17:01.578Z,35.40
2023-02-09T11:20:05.750Z,35.90
2023-02-09T11:22:59.406Z,34.80
2023-02-09T11:25:29.862Z,37.40
2023-02-09T11:28:10.885Z,33.07
2023-02-09T11:31:01.786Z,34.70
2023-02-09T11:33:39.947Z,29.17
2023-02-09T11:36:21.298Z,36.13
2023-02-09T11:38:54.176Z,37.10
2023-02-09T11:41:47.838Z,35.93
2023-02-09T11:44:25.696Z,36.33
2023-02-09T11:47:04.461Z,36.70
2023-02-09T11:49:43.024Z,34.60
2023-02-09T11:52:15.236Z,35.10
2023-02-09T11:54:47.588Z,34.77
2023-02-09T11:57:27.689Z,34.87
2023-02-09T11:59:58.657Z,36.13
2023-02-09T12:02:42.090Z,37.27
2023-02-09T12:05:13.312Z,36.40
2023-02-09T12:07:44.795Z,37.50
2023-02-09T12:10:20.743Z,35.13
2023-02-09T12:12:54.720Z,37.77
2023-02-09T12:15:25.878Z,34.30
2023-02-09T12:18:00.191Z,35.53
2023-02-09T12:20:32.332Z,34.37
2023-02-09T12:23:07.745Z,34.90
2023-02-09T12:25:51.582Z,39.03
2023-02-09T12:28:41.311Z,34.60
2023-02-09T12:31:16.233Z,35.23
2023-02-09T12:34:13.383Z,34.87
2023-02-09T12:37:02.915Z,37.57
2023-02-09T12:39:34.980Z,33.47
2023-02-09T12:42:26.994Z,35.88
2023-02-09T12:44:57.868Z,36.40
2023-02-09T12:47:43.731Z,36.35
2023-02-09T12:50:28.189Z,35.43
2023-02-09T12:53:32.204Z,36.55
2023-02-09T12:56:03.034Z,37.35
2023-02-09T12:58:39.132Z,39.30
2023-02-09T13:01:07.550Z,33.35
2023-02-09T13:03:43.496Z,34.50
2023-02-09T13:06:28.498Z,34.50
2023-02-09T13:08:59.579Z,36.30
2023-02-09T13:11:31.346Z,32.08
2023-02-09T13:14:03.250Z,33.35
2023-02-09T13:17:02.134Z,35.97
2023-02-09T13:19:53.175Z,35.00
2023-02-09T13:22:31.980Z,33.95
2023-02-09T13:25:02.830Z,38.30
2023-02-09T13:27:34.014Z,32.78
2023-02-09T13:30:01.743Z,34.83
2023-02-09T13:32:50.667Z,32.95
2023-02-09T13:35:25.182Z,33.63
2023-02-09T13:37:57.597Z,33.42
2023-02-09T13:40:27.460Z,34.80
2023-02-09T13:42:58.206Z,34.83
2023-02-09T13:45:28.070Z,38.42
2023-02-09T13:47:56.961Z,37.95
2023-02-09T13:50:28.156Z,33.50
2023-02-09T13:53:09.203Z,31.90
2023-02-09T13:55:39.867Z,37.05
2023-02-09T13:58:10.015Z,35.35
2023-02-09T14:00:42.332Z,34.53
2023-02-09T14:03:16.415Z,34.28
2023-02-09T14:05:52.410Z,33.58
2023-02-09T14:08:22.211Z,35.47
2023-02-09T14:10:56.023Z,33.70
2023-02-09T14:13:28.755Z,32.72
2023-02-09T14:16:09.279Z,34.85
2023-02-09T14:18:50.293Z,36.83
2023-02-09T14:21:22.439Z,32.30
2023-02-09T14:24:16.628Z,34.42
2023-02-09T14:26:47.727Z,34.77
2023-02-09T14:29:19.010Z,33.53
2023-02-09T14:31:49.147Z,35.25
2023-02-09T14:34:27.991Z,37.05
2023-02-09T14:36:58.247Z,35.05
2023-02-09T14:39:31.281Z,34.53
2023-02-09T14:42:14.874Z,33.47
2023-02-09T14:44:47.248Z,33.97
2023-02-09T14:47:29.685Z,33.38
2023-02-09T14:49:58.840Z,33.58
2023-02-09T14:52:29.450Z,39.57
2023-02-09T14:55:01.421Z,35.85
2023-02-09T14:57:32.030Z,35.63
2023-02-09T15:00:00.190Z,36.88
2023-02-09T15:02:28.999Z,35.13
2023-02-09T15:04:56.873Z,33.70
2023-02-09T15:07:33.025Z,38.53
2023-02-09T15:10:02.747Z,32.15
2023-02-09T15:12:30.807Z,36.03
2023-02-09T15:15:01.352Z,39.60
2023-02-09T15:17:30.961Z,35.85
2023-02-09T15:19:59.789Z,34.50
2023-02-09T15:22:27.703Z,35.13
2023-02-09T15:24:55.494Z,36.10
2023-02-09T15:27:27.692Z,38.33
2023-02-09T15:29:59.402Z,36.03
2023-02-09T15:32:28.509Z,40.10
2023-02-09T15:34:56.339Z,37.57
2023-02-09T15:37:26.522Z,37.78
2023-02-09T15:39:57.284Z,35.78
2023-02-09T15:42:44.487Z,35.60
2023-02-09T15:45:35.000Z,43.53
2023-02-09T15:48:03.469Z,34.88
2023-02-09T15:50:32.821Z,39.00
2023-02-09T15:53:04.043Z,38.27
2023-02-09T15:55:32.083Z,36.70
2023-02-09T15:58:01.553Z,38.83
2023-02-09T16:00:31.447Z,34.03
2023-02-09T16:03:01.139Z,36.10
2023-02-09T16:05:30.595Z,39.27
2023-02-09T16:08:00.693Z,41.73
2023-02-09T16:10:30.310Z,36.00
2023-02-09T16:12:58.552Z,39.93
2023-02-09T16:15:28.543Z,37.33
2023-02-09T16:17:56.298Z,36.50
2023-02-09T16:20:25.990Z,39.23
2023-02-09T16:22:55.653Z,34.93
2023-02-09T16:25:25.707Z,36.97
2023-02-09T16:27:55.200Z,42.17
2023-02-09T16:30:25.892Z,38.63
2023-02-09T16:32:55.796Z,38.00
2023-02-09T16:35:25.328Z,36.23
2023-02-09T16:37:56.044Z,36.33
2023-02-09T16:40:27.469Z,39.50
2023-02-09T16:42:57.744Z,42.97
2023-02-09T16:45:27.150Z,41.07
2023-02-09T16:47:59.426Z,42.57
2023-02-09T16:50:33.072Z,38.93
2023-02-09T16:53:02.926Z,41.87
2023-02-09T16:55:32.473Z,43.73
2023-02-09T16:58:02.137Z,41.37
2023-02-09T17:00:33.293Z,45.43
2023-02-09T17:03:13.993Z,42.40
2023-02-09T17:05:42.992Z,40.33
2023-02-09T17:08:17.104Z,44.87
2023-02-09T17:10:46.333Z,41.63
2023-02-09T17:13:17.322Z,42.77
2023-02-09T17:15:46.957Z,46.80
2023-02-09T17:18:18.892Z,42.27
2023-02-09T17:20:50.784Z,44.87
2023-02-09T17:23:22.871Z,45.03
2023-02-09T17:25:54.925Z,45.13
2023-02-09T17:28:23.196Z,42.53
2023-02-09T17:30:53.244Z,45.30
2023-02-09T17:33:24.731Z,45.23
2023-02-09T17:36:23.946Z,43.50
2023-02-09T17:38:41.800Z,45.57
2023-02-09T17:41:15.774Z,49.37
2023-02-09T17:43:43.572Z,48.00
2023-02-09T17:46:13.125Z,45.63
2023-02-09T17:48:42.288Z,65.90
2023-02-09T17:51:19.936Z,64.83
2023-02-09T17:53:48.763Z,60.27
2023-02-09T17:56:17.020Z,51.47
2023-02-09T17:58:45.342Z,50.40
2023-02-09T18:01:26.430Z,51.17
2023-02-09T18:03:57.736Z,48.77
2023-02-09T18:06:33.652Z,48.80
2023-02-09T18:09:02.478Z,45.77
2023-02-09T18:11:42.035Z,46.00
2023-02-09T18:14:13.108Z,53.30
2023-02-09T18:16:41.230Z,56.83
2023-02-09T18:19:10.717Z,60.77
2023-02-09T18:21:38.807Z,52.23
2023-02-09T18:24:07.883Z,50.93
2023-02-09T18:26:35.785Z,52.50
2023-02-09T18:29:03.563Z,55.90
2023-02-09T18:31:31.371Z,52.50
2023-02-09T18:33:59.064Z,51.07
2023-02-09T18:36:28.379Z,49.90
2023-02-09T18:38:56.062Z,51.57
2023-02-09T18:41:24.798Z,51.93
2023-02-09T18:43:54.385Z,52.73
2023-02-09T18:46:24.546Z,52.30
2023-02-09T18:48:52.797Z,55.30
2023-02-09T18:51:20.959Z,55.97
2023-02-09T18:53:51.276Z,56.60
2023-02-09T18:56:20.280Z,54.67
2023-02-09T18:58:50.316Z,61.60
2023-02-09T19:01:20.654Z,73.00
2023-02-09T19:03:50.724Z,65.73
2023-02-09T19:06:20.418Z,62.20
2023-02-09T19:08:50.605Z,65.70
2023-02-09T19:11:20.878Z,64.73
2023-02-09T19:14:09.791Z,61.60
2023-02-09T19:16:40.930Z,56.07
2023-02-09T19:19:12.284Z,60.07
2023-02-09T19:21:40.072Z,57.93
2023-02-09T19:24:10.548Z,53.53
2023-02-09T19:26:38.150Z,58.07
2023-02-09T19:29:06.724Z,52.97
2023-02-09T19:31:34.529Z,55.77
2023-02-09T19:34:02.973Z,57.67
2023-02-09T19:36:31.191Z,54.27
2023-02-09T19:39:00.388Z,51.33
2023-02-09T19:41:29.534Z,54.23
2023-02-09T19:43:57.688Z,54.27
2023-02-09T19:46:26.706Z,51.50
2023-02-09T19:48:54.697Z,53.67
2023-02-09T19:51:23.174Z,55.93
2023-02-09T19:53:51.977Z,55.17
2023-02-09T19:56:23.641Z,49.57
2023-02-09T19:58:53.648Z,52.77
2023-02-09T20:01:22.252Z,57.93
2023-02-09T20:03:52.555Z,55.73
2023-02-09T20:06:20.549Z,54.20
2023-02-09T20:08:48.500Z,58.13
2023-02-09T20:11:19.318Z,59.70
2023-02-09T20:13:49.845Z,66.40
2023-02-09T20:16:22.575Z,59.20
2023-02-09T20:18:51.436Z,67.03
2023-02-09T20:21:20.614Z,64.00
2023-02-09T20:23:48.997Z,64.37
2023-02-09T20:26:19.459Z,64.10
2023-02-09T20:28:48.846Z,61.37
2023-02-09T20:31:21.446Z,64.53
2023-02-09T20:33:49.683Z,72.50
2023-02-09T20:36:18.513Z,70.97
2023-02-09T20:38:46.357Z,72.57
2023-02-09T20:41:16.387Z,61.83
2023-02-09T20:44:02.122Z,54.90
2023-02-09T20:46:50.716Z,51.93
2023-02-09T20:49:19.073Z,54.17
2023-02-09T20:51:47.378Z,54.27
2023-02-09T20:54:15.605Z,49.73
2023-02-09T20:56:44.073Z,46.50
2023-02-09T20:59:13.119Z,44.57
2023-02-09T21:01:42.628Z,49.00
2023-02-09T21:04:10.968Z,41.70
2023-02-09T21:06:39.513Z,41.07
2023-02-09T21:09:08.924Z,43.07
2023-02-09T21:11:36.941Z,40.77
2023-02-09T21:14:04.720Z,42.00
2023-02-09T21:16:33.482Z,41.47
2023-02-09T21:19:03.282Z,42.57
2023-02-09T21:21:31.311Z,46.03
2023-02-09T21:23:59.290Z,43.40
2023-02-09T21:26:28.772Z,45.90
2023-02-09T21:28:58.157Z,45.37
2023-02-09T21:31:28.376Z,48.90
2023-02-09T21:33:56.875Z,49.90
2023-02-09T21:36:26.043Z,50.30
2023-02-09T21:38:54.048Z,54.00
2023-02-09T21:41:43.081Z,50.93
2023-02-09T21:44:12.055Z,49.33
2023-02-09T21:46:39.939Z,49.73
2023-02-09T21:49:08.293Z,48.20
2023-02-09T21:51:37.890Z,51.67
2023-02-09T21:54:06.111Z,52.47
2023-02-09T21:56:34.026Z,53.00
2023-02-09T21:59:01.742Z,49.07
2023-02-09T22:01:31.396Z,52.10
2023-02-09T22:04:00.644Z,56.27
2023-02-09T22:06:31.007Z,57.20
2023-02-09T22:09:02.819Z,54.93
2023-02-09T22:11:30.861Z,49.43
2023-02-09T22:13:59.147Z,51.03
2023-02-09T22:16:27.011Z,50.80
2023-02-09T22:18:54.709Z,50.50
2023-02-09T22:21:22.606Z,49.80
2023-02-09T22:23:50.324Z,49.57
2023-02-09T22:26:19.638Z,48.73
2023-02-09T22:28:47.655Z,50.30
2023-02-09T22:31:17.054Z,49.70
2023-02-09T22:33:45.432Z,49.73
2023-02-09T22:36:14.936Z,48.13
2023-02-09T22:38:44.798Z,50.33
2023-02-09T22:41:22.156Z,46.47
2023-02-09T22:43:53.005Z,47.17
2023-02-09T22:46:22.362Z,46.70
2023-02-09T22:48:53.871Z,45.57
2023-02-09T22:51:22.116Z,45.10
2023-02-09T22:53:49.753Z,49.07
2023-02-09T22:56:18.041Z,47.43
2023-02-09T22:58:45.749Z,44.93
2023-02-09T23:01:15.341Z,45.10
2023-02-09T23:03:43.209Z,42.43
2023-02-09T23:06:14.878Z,45.20
2023-02-09T23:08:42.569Z,44.07
2023-02-09T23:11:12.728Z,41.33
2023-02-09T23:13:41.084Z,45.73
2023-02-09T23:16:11.098Z,49.03
2023-02-09T23:18:41.336Z,45.27
2023-02-09T23:21:09.555Z,47.97
2023-02-09T23:23:37.619Z,47.77
2023-02-09T23:26:05.512Z,44.43
2023-02-09T23:28:33.692Z,44.47
2023-02-09T23:31:05.429Z,49.20
2023-02-09T23:33:34.258Z,52.20
2023-02-09T23:36:05.392Z,46.23
2023-02-09T23:38:33.560Z,50.20
2023-02-09T23:41:05.584Z,49.97
2023-02-09T23:43:33.318Z,60.40
2023-02-09T23:46:01.745Z,55.03
2023-02-09T23:48:29.815Z,57.67
2023-02-09T23:51:00.388Z,52.30
2023-02-09T23:53:30.570Z,50.87
2023-02-09T23:56:03.671Z,49.27
2023-02-09T23:58:31.896Z,45.17
